sensor_id;sensor_type;location;lat;lon;timestamp;P1;durP1;ratioP1;P2;durP2;ratioP2
55718;SDS011;41623;46.104;19.656;2022-08-01T00:00:23;2.95;;;1.52;;
55718;SDS011;41623;46.104;19.656;2022-08-01T00:02:49;1.23;;;1.13;;
55718;SDS011;41623;46.104;19.656;2022-08-01T00:05:15;2.83;;;1.92;;
55718;SDS011;41623;46.104;19.656;2022-08-01T00:07:41;1.67;;;1.30;;
55718;SDS011;41623;46.104;19.656;2022-08-01T00:10:09;2.15;;;1.45;;
55718;SDS011;41623;46.104;19.656;2022-08-01T00:12:35;3.15;;;1.70;;
55718;SDS011;41623;46.104;19.656;2022-08-01T00:15:01;2.08;;;1.42;;
55718;SDS011;41623;46.104;19.656;2022-08-01T00:17:28;1.35;;;1.00;;
55718;SDS011;41623;46.104;19.656;2022-08-01T00:19:54;1.73;;;1.30;;
55718;SDS011;41623;46.104;19.656;2022-08-01T00:22:20;1.50;;;1.38;;
55718;SDS011;41623;46.104;19.656;2022-08-01T00:24:46;2.10;;;1.45;;
55718;SDS011;41623;46.104;19.656;2022-08-01T00:27:12;1.73;;;1.40;;
55718;SDS011;41623;46.104;19.656;2022-08-01T00:29:38;2.60;;;1.75;;
55718;SDS011;41623;46.104;19.656;2022-08-01T00:32:05;2.25;;;1.55;;
55718;SDS011;41623;46.104;19.656;2022-08-01T00:34:31;3.63;;;1.33;;
55718;SDS011;41623;46.104;19.656;2022-08-01T00:36:57;1.42;;;1.33;;
55718;SDS011;41623;46.104;19.656;2022-08-01T00:39:23;2.05;;;1.52;;
55718;SDS011;41623;46.104;19.656;2022-08-01T00:41:49;1.67;;;1.50;;
55718;SDS011;41623;46.104;19.656;2022-08-01T00:44:15;1.73;;;1.50;;
55718;SDS011;41623;46.104;19.656;2022-08-01T00:46:41;4.22;;;1.77;;
55718;SDS011;41623;46.104;19.656;2022-08-01T00:49:07;3.33;;;1.95;;
55718;SDS011;41623;46.104;19.656;2022-08-01T00:51:33;1.90;;;1.50;;
55718;SDS011;41623;46.104;19.656;2022-08-01T00:54:00;2.40;;;1.60;;
55718;SDS011;41623;46.104;19.656;2022-08-01T00:56:26;1.58;;;1.42;;
55718;SDS011;41623;46.104;19.656;2022-08-01T00:58:54;1.63;;;1.52;;
55718;SDS011;41623;46.104;19.656;2022-08-01T01:01:20;6.93;;;1.60;;
55718;SDS011;41623;46.104;19.656;2022-08-01T01:03:47;2.05;;;1.77;;
55718;SDS011;41623;46.104;19.656;2022-08-01T01:09:02;2.08;;;1.70;;
55718;SDS011;41623;46.104;19.656;2022-08-01T01:11:35;2.83;;;1.75;;
55718;SDS011;41623;46.104;19.656;2022-08-01T01:14:08;4.57;;;2.40;;
55718;SDS011;41623;46.104;19.656;2022-08-01T01:16:35;2.08;;;1.58;;
55718;SDS011;41623;46.104;19.656;2022-08-01T01:19:02;3.08;;;1.83;;
55718;SDS011;41623;46.104;19.656;2022-08-01T01:21:46;3.55;;;1.90;;
55718;SDS011;41623;46.104;19.656;2022-08-01T01:31:46;1.63;;;1.48;;
55718;SDS011;41623;46.104;19.656;2022-08-01T01:34:13;1.58;;;1.25;;
55718;SDS011;41623;46.104;19.656;2022-08-01T01:36:39;2.42;;;1.85;;
55718;SDS011;41623;46.104;19.656;2022-08-01T01:39:06;1.30;;;1.20;;
55718;SDS011;41623;46.104;19.656;2022-08-01T01:41:33;1.98;;;1.50;;
55718;SDS011;41623;46.104;19.656;2022-08-01T01:44:00;2.42;;;1.88;;
55718;SDS011;41623;46.104;19.656;2022-08-01T01:46:27;2.33;;;1.63;;
55718;SDS011;41623;46.104;19.656;2022-08-01T01:48:55;2.38;;;1.60;;
55718;SDS011;41623;46.104;19.656;2022-08-01T01:51:22;2.72;;;1.50;;
55718;SDS011;41623;46.104;19.656;2022-08-01T01:53:50;2.15;;;1.42;;
55718;SDS011;41623;46.104;19.656;2022-08-01T01:56:17;1.48;;;1.38;;
55718;SDS011;41623;46.104;19.656;2022-08-01T01:58:44;4.80;;;1.70;;
55718;SDS011;41623;46.104;19.656;2022-08-01T02:01:11;2.45;;;1.58;;
55718;SDS011;41623;46.104;19.656;2022-08-01T02:03:38;2.97;;;1.85;;
55718;SDS011;41623;46.104;19.656;2022-08-01T02:06:06;1.98;;;1.58;;
55718;SDS011;41623;46.104;19.656;2022-08-01T02:08:32;2.47;;;1.52;;
55718;SDS011;41623;46.104;19.656;2022-08-01T02:10:59;2.65;;;1.85;;
55718;SDS011;41623;46.104;19.656;2022-08-01T02:13:47;1.95;;;1.65;;
55718;SDS011;41623;46.104;19.656;2022-08-01T02:16:13;1.88;;;1.45;;
55718;SDS011;41623;46.104;19.656;2022-08-01T02:18:40;2.40;;;1.70;;
55718;SDS011;41623;46.104;19.656;2022-08-01T02:21:08;2.15;;;1.48;;
55718;SDS011;41623;46.104;19.656;2022-08-01T02:23:36;3.88;;;1.90;;
55718;SDS011;41623;46.104;19.656;2022-08-01T02:26:07;3.67;;;1.83;;
55718;SDS011;41623;46.104;19.656;2022-08-01T02:29:19;2.70;;;1.50;;
55718;SDS011;41623;46.104;19.656;2022-08-01T02:31:20;1.80;;;1.45;;
55718;SDS011;41623;46.104;19.656;2022-08-01T02:33:57;1.95;;;1.35;;
55718;SDS011;41623;46.104;19.656;2022-08-01T02:36:25;5.68;;;1.50;;
55718;SDS011;41623;46.104;19.656;2022-08-01T02:38:52;1.60;;;1.20;;
55718;SDS011;41623;46.104;19.656;2022-08-01T02:41:20;3.20;;;1.92;;
55718;SDS011;41623;46.104;19.656;2022-08-01T02:43:48;3.65;;;2.35;;
55718;SDS011;41623;46.104;19.656;2022-08-01T02:46:23;8.68;;;5.50;;
55718;SDS011;41623;46.104;19.656;2022-08-01T02:48:50;6.07;;;2.60;;
55718;SDS011;41623;46.104;19.656;2022-08-01T02:51:18;2.63;;;1.80;;
55718;SDS011;41623;46.104;19.656;2022-08-01T02:53:46;2.90;;;2.03;;
55718;SDS011;41623;46.104;19.656;2022-08-01T02:56:12;3.08;;;1.98;;
55718;SDS011;41623;46.104;19.656;2022-08-01T02:58:39;3.25;;;1.80;;
55718;SDS011;41623;46.104;19.656;2022-08-01T03:01:06;4.88;;;1.85;;
55718;SDS011;41623;46.104;19.656;2022-08-01T03:03:33;3.97;;;2.05;;
55718;SDS011;41623;46.104;19.656;2022-08-01T03:06:00;3.67;;;1.90;;
55718;SDS011;41623;46.104;19.656;2022-08-01T03:08:28;2.75;;;1.73;;
55718;SDS011;41623;46.104;19.656;2022-08-01T03:10:55;2.45;;;1.40;;
55718;SDS011;41623;46.104;19.656;2022-08-01T03:13:21;2.60;;;1.73;;
55718;SDS011;41623;46.104;19.656;2022-08-01T03:15:47;2.17;;;1.55;;
55718;SDS011;41623;46.104;19.656;2022-08-01T03:18:14;3.08;;;1.85;;
55718;SDS011;41623;46.104;19.656;2022-08-01T03:20:41;3.95;;;1.80;;
55718;SDS011;41623;46.104;19.656;2022-08-01T03:23:08;1.65;;;1.52;;
55718;SDS011;41623;46.104;19.656;2022-08-01T03:25:36;3.03;;;1.75;;
55718;SDS011;41623;46.104;19.656;2022-08-01T03:28:05;2.63;;;1.95;;
55718;SDS011;41623;46.104;19.656;2022-08-01T03:30:33;1.98;;;1.60;;
55718;SDS011;41623;46.104;19.656;2022-08-01T03:33:01;3.72;;;1.83;;
55718;SDS011;41623;46.104;19.656;2022-08-01T03:35:33;2.67;;;1.77;;
55718;SDS011;41623;46.104;19.656;2022-08-01T03:37:59;3.78;;;2.13;;
55718;SDS011;41623;46.104;19.656;2022-08-01T03:40:40;6.20;;;3.20;;
55718;SDS011;41623;46.104;19.656;2022-08-01T03:43:09;9.13;;;4.18;;
55718;SDS011;41623;46.104;19.656;2022-08-01T03:45:38;6.07;;;3.60;;
55718;SDS011;41623;46.104;19.656;2022-08-01T03:48:07;6.28;;;2.95;;
55718;SDS011;41623;46.104;19.656;2022-08-01T03:50:39;3.75;;;2.90;;
55718;SDS011;41623;46.104;19.656;2022-08-01T03:53:07;5.05;;;2.88;;
55718;SDS011;41623;46.104;19.656;2022-08-01T03:55:34;4.38;;;2.60;;
55718;SDS011;41623;46.104;19.656;2022-08-01T03:58:03;3.35;;;2.65;;
55718;SDS011;41623;46.104;19.656;2022-08-01T04:00:30;3.88;;;2.75;;
55718;SDS011;41623;46.104;19.656;2022-08-01T04:02:56;3.17;;;2.40;;
55718;SDS011;41623;46.104;19.656;2022-08-01T04:05:23;5.90;;;2.38;;
55718;SDS011;41623;46.104;19.656;2022-08-01T04:07:49;4.55;;;2.97;;
55718;SDS011;41623;46.104;19.656;2022-08-01T04:10:21;6.72;;;3.67;;
55718;SDS011;41623;46.104;19.656;2022-08-01T04:12:50;7.10;;;3.15;;
55718;SDS011;41623;46.104;19.656;2022-08-01T04:15:17;4.13;;;2.53;;
55718;SDS011;41623;46.104;19.656;2022-08-01T04:17:45;3.00;;;2.22;;
55718;SDS011;41623;46.104;19.656;2022-08-01T04:20:11;3.95;;;2.40;;
55718;SDS011;41623;46.104;19.656;2022-08-01T04:22:37;8.07;;;2.55;;
55718;SDS011;41623;46.104;19.656;2022-08-01T04:25:04;3.83;;;2.85;;
55718;SDS011;41623;46.104;19.656;2022-08-01T04:27:37;10.68;;;7.97;;
55718;SDS011;41623;46.104;19.656;2022-08-01T04:30:04;10.45;;;5.80;;
55718;SDS011;41623;46.104;19.656;2022-08-01T04:32:34;8.18;;;3.30;;
55718;SDS011;41623;46.104;19.656;2022-08-01T04:35:05;5.40;;;2.38;;
55718;SDS011;41623;46.104;19.656;2022-08-01T04:37:32;5.30;;;2.40;;
55718;SDS011;41623;46.104;19.656;2022-08-01T04:40:02;10.35;;;3.00;;
55718;SDS011;41623;46.104;19.656;2022-08-01T04:42:29;8.18;;;2.50;;
55718;SDS011;41623;46.104;19.656;2022-08-01T04:44:55;4.00;;;2.53;;
55718;SDS011;41623;46.104;19.656;2022-08-01T04:47:21;8.18;;;2.80;;
55718;SDS011;41623;46.104;19.656;2022-08-01T04:49:48;7.05;;;3.47;;
55718;SDS011;41623;46.104;19.656;2022-08-01T04:52:15;5.85;;;3.50;;
55718;SDS011;41623;46.104;19.656;2022-08-01T04:54:43;4.55;;;2.50;;
55718;SDS011;41623;46.104;19.656;2022-08-01T04:57:09;5.55;;;2.55;;
55718;SDS011;41623;46.104;19.656;2022-08-01T04:59:36;4.90;;;3.30;;
55718;SDS011;41623;46.104;19.656;2022-08-01T05:02:12;4.68;;;2.72;;
55718;SDS011;41623;46.104;19.656;2022-08-01T05:04:39;3.38;;;2.50;;
55718;SDS011;41623;46.104;19.656;2022-08-01T05:07:06;3.90;;;2.28;;
55718;SDS011;41623;46.104;19.656;2022-08-01T05:09:33;6.43;;;2.97;;
55718;SDS011;41623;46.104;19.656;2022-08-01T05:11:59;4.65;;;2.42;;
55718;SDS011;41623;46.104;19.656;2022-08-01T05:14:27;4.80;;;2.17;;
55718;SDS011;41623;46.104;19.656;2022-08-01T05:16:53;5.07;;;2.67;;
55718;SDS011;41623;46.104;19.656;2022-08-01T05:19:20;6.07;;;2.42;;
55718;SDS011;41623;46.104;19.656;2022-08-01T05:21:46;6.50;;;3.78;;
55718;SDS011;41623;46.104;19.656;2022-08-01T05:24:12;5.70;;;3.42;;
55718;SDS011;41623;46.104;19.656;2022-08-01T05:26:39;4.32;;;2.72;;
55718;SDS011;41623;46.104;19.656;2022-08-01T05:29:05;8.52;;;2.63;;
55718;SDS011;41623;46.104;19.656;2022-08-01T05:31:31;6.05;;;2.50;;
55718;SDS011;41623;46.104;19.656;2022-08-01T05:34:01;3.95;;;2.58;;
55718;SDS011;41623;46.104;19.656;2022-08-01T05:36:27;2.90;;;2.13;;
55718;SDS011;41623;46.104;19.656;2022-08-01T05:38:53;2.88;;;2.13;;
55718;SDS011;41623;46.104;19.656;2022-08-01T05:41:19;3.20;;;2.15;;
55718;SDS011;41623;46.104;19.656;2022-08-01T05:43:45;5.60;;;2.70;;
55718;SDS011;41623;46.104;19.656;2022-08-01T05:46:21;3.20;;;1.92;;
55718;SDS011;41623;46.104;19.656;2022-08-01T05:48:47;3.95;;;2.58;;
55718;SDS011;41623;46.104;19.656;2022-08-01T05:51:13;3.47;;;2.25;;
55718;SDS011;41623;46.104;19.656;2022-08-01T05:53:39;3.33;;;1.90;;
55718;SDS011;41623;46.104;19.656;2022-08-01T05:56:05;2.38;;;2.10;;
55718;SDS011;41623;46.104;19.656;2022-08-01T05:58:31;9.98;;;2.30;;
55718;SDS011;41623;46.104;19.656;2022-08-01T06:00:58;2.13;;;1.45;;
55718;SDS011;41623;46.104;19.656;2022-08-01T06:03:24;3.10;;;2.10;;
55718;SDS011;41623;46.104;19.656;2022-08-01T06:05:53;3.10;;;1.80;;
55718;SDS011;41623;46.104;19.656;2022-08-01T06:08:19;2.22;;;1.90;;
55718;SDS011;41623;46.104;19.656;2022-08-01T06:10:45;2.67;;;2.08;;
55718;SDS011;41623;46.104;19.656;2022-08-01T06:13:11;3.00;;;1.75;;
55718;SDS011;41623;46.104;19.656;2022-08-01T06:15:38;3.03;;;1.98;;
55718;SDS011;41623;46.104;19.656;2022-08-01T06:18:04;5.13;;;1.80;;
55718;SDS011;41623;46.104;19.656;2022-08-01T06:20:30;3.35;;;1.90;;
55718;SDS011;41623;46.104;19.656;2022-08-01T06:22:56;3.63;;;2.15;;
55718;SDS011;41623;46.104;19.656;2022-08-01T06:25:22;2.67;;;1.92;;
55718;SDS011;41623;46.104;19.656;2022-08-01T06:27:48;2.08;;;1.65;;
55718;SDS011;41623;46.104;19.656;2022-08-01T06:30:14;1.88;;;1.58;;
55718;SDS011;41623;46.104;19.656;2022-08-01T06:32:40;2.40;;;1.58;;
55718;SDS011;41623;46.104;19.656;2022-08-01T06:35:06;3.63;;;2.47;;
55718;SDS011;41623;46.104;19.656;2022-08-01T06:37:32;3.88;;;1.67;;
55718;SDS011;41623;46.104;19.656;2022-08-01T06:40:05;2.30;;;1.52;;
55718;SDS011;41623;46.104;19.656;2022-08-01T06:42:32;11.75;;;1.75;;
55718;SDS011;41623;46.104;19.656;2022-08-01T06:47:29;3.83;;;1.55;;
55718;SDS011;41623;46.104;19.656;2022-08-01T06:49:54;4.97;;;1.88;;
55718;SDS011;41623;46.104;19.656;2022-08-01T06:52:20;3.90;;;1.85;;
55718;SDS011;41623;46.104;19.656;2022-08-01T06:54:46;7.32;;;1.67;;
55718;SDS011;41623;46.104;19.656;2022-08-01T06:57:12;3.33;;;2.00;;
55718;SDS011;41623;46.104;19.656;2022-08-01T06:59:38;2.58;;;1.67;;
55718;SDS011;41623;46.104;19.656;2022-08-01T07:02:04;4.75;;;1.92;;
55718;SDS011;41623;46.104;19.656;2022-08-01T07:04:30;1.60;;;1.40;;
55718;SDS011;41623;46.104;19.656;2022-08-01T07:06:56;2.22;;;1.60;;
55718;SDS011;41623;46.104;19.656;2022-08-01T07:09:22;1.90;;;1.40;;
55718;SDS011;41623;46.104;19.656;2022-08-01T07:11:48;2.63;;;1.75;;
55718;SDS011;41623;46.104;19.656;2022-08-01T07:14:17;1.42;;;1.30;;
55718;SDS011;41623;46.104;19.656;2022-08-01T07:16:43;1.50;;;1.35;;
55718;SDS011;41623;46.104;19.656;2022-08-01T07:19:09;2.00;;;1.58;;
55718;SDS011;41623;46.104;19.656;2022-08-01T07:21:35;3.30;;;2.13;;
55718;SDS011;41623;46.104;19.656;2022-08-01T07:24:02;1.42;;;1.08;;
55718;SDS011;41623;46.104;19.656;2022-08-01T07:26:28;1.55;;;1.23;;
55718;SDS011;41623;46.104;19.656;2022-08-01T07:28:53;1.35;;;1.17;;
55718;SDS011;41623;46.104;19.656;2022-08-01T07:31:19;3.03;;;1.60;;
55718;SDS011;41623;46.104;19.656;2022-08-01T07:33:45;2.60;;;1.60;;
55718;SDS011;41623;46.104;19.656;2022-08-01T07:36:11;2.88;;;2.03;;
55718;SDS011;41623;46.104;19.656;2022-08-01T07:38:36;3.55;;;1.70;;
55718;SDS011;41623;46.104;19.656;2022-08-01T07:41:02;3.42;;;1.88;;
55718;SDS011;41623;46.104;19.656;2022-08-01T07:43:28;2.05;;;1.45;;
55718;SDS011;41623;46.104;19.656;2022-08-01T07:45:54;2.67;;;1.20;;
55718;SDS011;41623;46.104;19.656;2022-08-01T07:48:20;1.45;;;1.20;;
55718;SDS011;41623;46.104;19.656;2022-08-01T07:50:49;1.58;;;1.48;;
55718;SDS011;41623;46.104;19.656;2022-08-01T07:53:15;3.88;;;1.70;;
55718;SDS011;41623;46.104;19.656;2022-08-01T07:55:41;2.83;;;2.05;;
55718;SDS011;41623;46.104;19.656;2022-08-01T07:58:07;5.65;;;1.67;;
55718;SDS011;41623;46.104;19.656;2022-08-01T08:00:33;1.98;;;1.48;;
55718;SDS011;41623;46.104;19.656;2022-08-01T08:02:59;5.35;;;1.88;;
55718;SDS011;41623;46.104;19.656;2022-08-01T08:05:26;1.98;;;1.60;;
55718;SDS011;41623;46.104;19.656;2022-08-01T08:07:52;1.77;;;1.40;;
55718;SDS011;41623;46.104;19.656;2022-08-01T08:10:18;1.38;;;1.25;;
55718;SDS011;41623;46.104;19.656;2022-08-01T08:12:44;3.83;;;1.60;;
55718;SDS011;41623;46.104;19.656;2022-08-01T08:15:11;3.17;;;1.45;;
55718;SDS011;41623;46.104;19.656;2022-08-01T08:17:38;3.40;;;1.63;;
55718;SDS011;41623;46.104;19.656;2022-08-01T08:20:07;1.23;;;1.10;;
55718;SDS011;41623;46.104;19.656;2022-08-01T08:22:33;1.25;;;1.15;;
55718;SDS011;41623;46.104;19.656;2022-08-01T08:25:00;2.17;;;1.45;;
55718;SDS011;41623;46.104;19.656;2022-08-01T08:27:26;2.45;;;1.63;;
55718;SDS011;41623;46.104;19.656;2022-08-01T08:29:52;2.70;;;1.50;;
55718;SDS011;41623;46.104;19.656;2022-08-01T08:32:18;1.50;;;1.30;;
55718;SDS011;41623;46.104;19.656;2022-08-01T08:34:45;2.85;;;1.70;;
55718;SDS011;41623;46.104;19.656;2022-08-01T08:37:11;1.77;;;1.50;;
55718;SDS011;41623;46.104;19.656;2022-08-01T08:39:38;2.15;;;1.70;;
55718;SDS011;41623;46.104;19.656;2022-08-01T08:42:06;3.60;;;1.92;;
55718;SDS011;41623;46.104;19.656;2022-08-01T08:44:32;2.47;;;1.88;;
55718;SDS011;41623;46.104;19.656;2022-08-01T08:46:58;2.97;;;2.17;;
55718;SDS011;41623;46.104;19.656;2022-08-01T08:49:27;2.10;;;1.63;;
55718;SDS011;41623;46.104;19.656;2022-08-01T08:51:53;2.55;;;1.67;;
55718;SDS011;41623;46.104;19.656;2022-08-01T08:54:23;3.15;;;2.33;;
55718;SDS011;41623;46.104;19.656;2022-08-01T08:56:50;6.68;;;1.90;;
55718;SDS011;41623;46.104;19.656;2022-08-01T08:59:17;2.83;;;1.60;;
55718;SDS011;41623;46.104;19.656;2022-08-01T09:01:43;3.03;;;2.03;;
55718;SDS011;41623;46.104;19.656;2022-08-01T09:04:09;2.50;;;2.00;;
55718;SDS011;41623;46.104;19.656;2022-08-01T09:06:35;5.65;;;1.90;;
55718;SDS011;41623;46.104;19.656;2022-08-01T09:09:02;3.33;;;1.90;;
55718;SDS011;41623;46.104;19.656;2022-08-01T09:11:28;3.80;;;1.67;;
55718;SDS011;41623;46.104;19.656;2022-08-01T09:16:30;1.92;;;1.73;;
55718;SDS011;41623;46.104;19.656;2022-08-01T09:19:13;2.53;;;1.90;;
55718;SDS011;41623;46.104;19.656;2022-08-01T09:21:40;2.13;;;1.25;;
55718;SDS011;41623;46.104;19.656;2022-08-01T09:24:20;3.35;;;2.00;;
55718;SDS011;41623;46.104;19.656;2022-08-01T09:26:46;5.88;;;1.63;;
55718;SDS011;41623;46.104;19.656;2022-08-01T09:29:29;5.57;;;1.95;;
55718;SDS011;41623;46.104;19.656;2022-08-01T09:34:25;2.55;;;1.67;;
55718;SDS011;41623;46.104;19.656;2022-08-01T09:36:53;2.92;;;1.85;;
55718;SDS011;41623;46.104;19.656;2022-08-01T09:41:50;2.55;;;1.55;;
55718;SDS011;41623;46.104;19.656;2022-08-01T09:44:17;3.55;;;2.30;;
55718;SDS011;41623;46.104;19.656;2022-08-01T09:49:26;7.75;;;3.78;;
55718;SDS011;41623;46.104;19.656;2022-08-01T09:52:10;9.00;;;4.35;;
55718;SDS011;41623;46.104;19.656;2022-08-01T09:54:51;3.17;;;1.80;;
55718;SDS011;41623;46.104;19.656;2022-08-01T09:57:22;2.47;;;1.73;;
55718;SDS011;41623;46.104;19.656;2022-08-01T09:59:49;2.85;;;2.08;;
55718;SDS011;41623;46.104;19.656;2022-08-01T10:02:37;1.88;;;1.48;;
55718;SDS011;41623;46.104;19.656;2022-08-01T10:05:05;2.17;;;1.77;;
55718;SDS011;41623;46.104;19.656;2022-08-01T10:07:32;2.35;;;1.48;;
55718;SDS011;41623;46.104;19.656;2022-08-01T10:10:09;12.00;;;1.77;;
55718;SDS011;41623;46.104;19.656;2022-08-01T10:12:39;2.90;;;1.73;;
55718;SDS011;41623;46.104;19.656;2022-08-01T10:15:06;2.92;;;1.80;;
55718;SDS011;41623;46.104;19.656;2022-08-01T10:17:33;2.33;;;1.73;;
55718;SDS011;41623;46.104;19.656;2022-08-01T10:20:01;2.05;;;1.42;;
55718;SDS011;41623;46.104;19.656;2022-08-01T10:22:27;2.75;;;2.00;;
55718;SDS011;41623;46.104;19.656;2022-08-01T10:24:56;3.25;;;1.90;;
55718;SDS011;41623;46.104;19.656;2022-08-01T10:27:25;3.20;;;2.05;;
55718;SDS011;41623;46.104;19.656;2022-08-01T10:30:00;2.67;;;1.95;;
55718;SDS011;41623;46.104;19.656;2022-08-01T10:32:33;4.22;;;2.20;;
55718;SDS011;41623;46.104;19.656;2022-08-01T10:35:00;3.13;;;1.85;;
55718;SDS011;41623;46.104;19.656;2022-08-01T10:37:26;2.25;;;1.65;;
55718;SDS011;41623;46.104;19.656;2022-08-01T10:39:53;1.77;;;1.30;;
55718;SDS011;41623;46.104;19.656;2022-08-01T10:42:19;3.45;;;2.45;;
55718;SDS011;41623;46.104;19.656;2022-08-01T10:44:46;2.78;;;2.17;;
55718;SDS011;41623;46.104;19.656;2022-08-01T10:47:14;2.63;;;1.80;;
55718;SDS011;41623;46.104;19.656;2022-08-01T10:50:02;1.88;;;1.60;;
55718;SDS011;41623;46.104;19.656;2022-08-01T10:52:36;2.37;;;1.73;;
55718;SDS011;41623;46.104;19.656;2022-08-01T10:55:05;2.88;;;1.92;;
55718;SDS011;41623;46.104;19.656;2022-08-01T10:57:43;2.30;;;1.67;;
55718;SDS011;41623;46.104;19.656;2022-08-01T11:00:18;1.83;;;1.58;;
55718;SDS011;41623;46.104;19.656;2022-08-01T11:03:01;2.10;;;1.52;;
55718;SDS011;41623;46.104;19.656;2022-08-01T11:08:00;12.18;;;2.22;;
55718;SDS011;41623;46.104;19.656;2022-08-01T11:12:56;1.52;;;1.20;;
55718;SDS011;41623;46.104;19.656;2022-08-01T11:15:24;3.42;;;2.28;;
55718;SDS011;41623;46.104;19.656;2022-08-01T11:17:50;2.22;;;1.35;;
55718;SDS011;41623;46.104;19.656;2022-08-01T11:30:41;2.65;;;2.00;;
55718;SDS011;41623;46.104;19.656;2022-08-01T11:33:12;2.95;;;1.80;;
55718;SDS011;41623;46.104;19.656;2022-08-01T11:36:16;3.90;;;2.00;;
55718;SDS011;41623;46.104;19.656;2022-08-01T11:38:41;2.47;;;1.83;;
55718;SDS011;41623;46.104;19.656;2022-08-01T11:43:54;2.47;;;1.77;;
55718;SDS011;41623;46.104;19.656;2022-08-01T11:46:53;3.35;;;1.85;;
55718;SDS011;41623;46.104;19.656;2022-08-01T11:52:13;2.20;;;1.85;;
55718;SDS011;41623;46.104;19.656;2022-08-01T11:54:42;3.08;;;2.35;;
55718;SDS011;41623;46.104;19.656;2022-08-01T11:57:09;3.78;;;1.67;;
55718;SDS011;41623;46.104;19.656;2022-08-01T11:59:46;8.30;;;2.20;;
55718;SDS011;41623;46.104;19.656;2022-08-01T12:02:15;1.73;;;1.52;;
55718;SDS011;41623;46.104;19.656;2022-08-01T12:07:17;2.47;;;1.88;;
55718;SDS011;41623;46.104;19.656;2022-08-01T12:09:44;4.55;;;1.90;;
55718;SDS011;41623;46.104;19.656;2022-08-01T12:12:12;2.13;;;1.40;;
55718;SDS011;41623;46.104;19.656;2022-08-01T12:14:42;2.50;;;2.00;;
55718;SDS011;41623;46.104;19.656;2022-08-01T12:17:08;3.53;;;2.42;;
55718;SDS011;41623;46.104;19.656;2022-08-01T12:19:34;2.15;;;1.55;;
55718;SDS011;41623;46.104;19.656;2022-08-01T12:22:21;3.75;;;2.42;;
55718;SDS011;41623;46.104;19.656;2022-08-01T12:24:47;4.32;;;2.53;;
55718;SDS011;41623;46.104;19.656;2022-08-01T12:27:23;4.15;;;1.80;;
55718;SDS011;41623;46.104;19.656;2022-08-01T12:29:49;1.98;;;1.50;;
55718;SDS011;41623;46.104;19.656;2022-08-01T12:32:28;2.90;;;2.15;;
55718;SDS011;41623;46.104;19.656;2022-08-01T12:34:56;2.78;;;2.05;;
55718;SDS011;41623;46.104;19.656;2022-08-01T12:37:22;2.65;;;1.90;;
55718;SDS011;41623;46.104;19.656;2022-08-01T12:39:49;1.70;;;1.58;;
55718;SDS011;41623;46.104;19.656;2022-08-01T12:42:15;1.70;;;1.48;;
55718;SDS011;41623;46.104;19.656;2022-08-01T12:44:41;7.28;;;2.50;;
55718;SDS011;41623;46.104;19.656;2022-08-01T12:47:08;1.90;;;1.55;;
55718;SDS011;41623;46.104;19.656;2022-08-01T12:49:35;11.77;;;2.03;;
55718;SDS011;41623;46.104;19.656;2022-08-01T12:52:02;2.75;;;1.33;;
55718;SDS011;41623;46.104;19.656;2022-08-01T12:54:28;2.35;;;1.77;;
55718;SDS011;41623;46.104;19.656;2022-08-01T12:56:54;1.25;;;1.05;;
55718;SDS011;41623;46.104;19.656;2022-08-01T12:59:23;1.33;;;1.08;;
55718;SDS011;41623;46.104;19.656;2022-08-01T13:01:53;1.48;;;1.38;;
55718;SDS011;41623;46.104;19.656;2022-08-01T13:04:19;1.88;;;1.40;;
55718;SDS011;41623;46.104;19.656;2022-08-01T13:06:46;1.27;;;1.17;;
55718;SDS011;41623;46.104;19.656;2022-08-01T13:09:12;3.33;;;2.00;;
55718;SDS011;41623;46.104;19.656;2022-08-01T13:11:41;2.35;;;1.55;;
55718;SDS011;41623;46.104;19.656;2022-08-01T13:14:08;3.63;;;1.20;;
55718;SDS011;41623;46.104;19.656;2022-08-01T13:16:47;2.10;;;1.27;;
55718;SDS011;41623;46.104;19.656;2022-08-01T13:19:13;1.83;;;1.40;;
55718;SDS011;41623;46.104;19.656;2022-08-01T13:21:39;3.15;;;2.20;;
55718;SDS011;41623;46.104;19.656;2022-08-01T13:24:22;2.10;;;1.80;;
55718;SDS011;41623;46.104;19.656;2022-08-01T13:26:50;4.57;;;1.50;;
55718;SDS011;41623;46.104;19.656;2022-08-01T13:29:20;6.38;;;1.95;;
55718;SDS011;41623;46.104;19.656;2022-08-01T13:31:48;1.58;;;1.38;;
55718;SDS011;41623;46.104;19.656;2022-08-01T13:34:14;1.77;;;1.52;;
55718;SDS011;41623;46.104;19.656;2022-08-01T13:36:40;2.00;;;1.48;;
55718;SDS011;41623;46.104;19.656;2022-08-01T13:39:07;5.38;;;1.65;;
55718;SDS011;41623;46.104;19.656;2022-08-01T13:41:52;3.92;;;2.05;;
55718;SDS011;41623;46.104;19.656;2022-08-01T13:44:18;1.38;;;1.27;;
55718;SDS011;41623;46.104;19.656;2022-08-01T13:46:44;2.88;;;1.63;;
55718;SDS011;41623;46.104;19.656;2022-08-01T13:49:12;2.97;;;1.50;;
55718;SDS011;41623;46.104;19.656;2022-08-01T13:51:38;5.28;;;3.38;;
55718;SDS011;41623;46.104;19.656;2022-08-01T13:54:04;10.38;;;3.42;;
55718;SDS011;41623;46.104;19.656;2022-08-01T13:56:31;2.25;;;1.67;;
55718;SDS011;41623;46.104;19.656;2022-08-01T13:58:57;1.77;;;1.55;;
55718;SDS011;41623;46.104;19.656;2022-08-01T14:01:24;2.35;;;1.55;;
55718;SDS011;41623;46.104;19.656;2022-08-01T14:03:50;1.90;;;1.70;;
55718;SDS011;41623;46.104;19.656;2022-08-01T14:06:17;2.13;;;1.52;;
55718;SDS011;41623;46.104;19.656;2022-08-01T14:08:44;2.13;;;1.65;;
55718;SDS011;41623;46.104;19.656;2022-08-01T14:11:10;3.28;;;1.83;;
55718;SDS011;41623;46.104;19.656;2022-08-01T14:13:37;2.33;;;1.33;;
55718;SDS011;41623;46.104;19.656;2022-08-01T14:16:04;3.42;;;1.75;;
55718;SDS011;41623;46.104;19.656;2022-08-01T14:18:31;1.38;;;1.27;;
55718;SDS011;41623;46.104;19.656;2022-08-01T14:20:57;1.00;;;1.00;;
55718;SDS011;41623;46.104;19.656;2022-08-01T14:23:23;1.45;;;1.33;;
55718;SDS011;41623;46.104;19.656;2022-08-01T14:25:49;1.85;;;1.50;;
55718;SDS011;41623;46.104;19.656;2022-08-01T14:28:15;1.73;;;1.40;;
55718;SDS011;41623;46.104;19.656;2022-08-01T14:30:41;1.30;;;1.20;;
55718;SDS011;41623;46.104;19.656;2022-08-01T14:33:08;2.42;;;1.75;;
55718;SDS011;41623;46.104;19.656;2022-08-01T14:35:34;0.90;;;0.82;;
55718;SDS011;41623;46.104;19.656;2022-08-01T14:38:00;1.52;;;1.30;;
55718;SDS011;41623;46.104;19.656;2022-08-01T14:40:26;1.77;;;1.38;;
55718;SDS011;41623;46.104;19.656;2022-08-01T14:42:52;1.45;;;1.35;;
55718;SDS011;41623;46.104;19.656;2022-08-01T14:45:18;1.25;;;1.10;;
55718;SDS011;41623;46.104;19.656;2022-08-01T14:47:44;1.88;;;1.40;;
55718;SDS011;41623;46.104;19.656;2022-08-01T14:50:12;2.17;;;1.40;;
55718;SDS011;41623;46.104;19.656;2022-08-01T14:52:39;1.77;;;1.50;;
55718;SDS011;41623;46.104;19.656;2022-08-01T14:55:06;6.68;;;1.73;;
55718;SDS011;41623;46.104;19.656;2022-08-01T14:57:34;1.55;;;1.45;;
55718;SDS011;41623;46.104;19.656;2022-08-01T15:00:00;1.05;;;0.95;;
55718;SDS011;41623;46.104;19.656;2022-08-01T15:02:28;4.13;;;1.40;;
55718;SDS011;41623;46.104;19.656;2022-08-01T15:04:54;1.10;;;1.00;;
55718;SDS011;41623;46.104;19.656;2022-08-01T15:07:20;1.58;;;1.20;;
55718;SDS011;41623;46.104;19.656;2022-08-01T15:09:45;3.13;;;1.60;;
55718;SDS011;41623;46.104;19.656;2022-08-01T15:12:11;2.70;;;1.83;;
55718;SDS011;41623;46.104;19.656;2022-08-01T15:14:38;3.70;;;2.63;;
55718;SDS011;41623;46.104;19.656;2022-08-01T15:17:31;1.27;;;1.17;;
55718;SDS011;41623;46.104;19.656;2022-08-01T15:19:58;3.58;;;1.80;;
55718;SDS011;41623;46.104;19.656;2022-08-01T15:22:25;2.78;;;1.60;;
55718;SDS011;41623;46.104;19.656;2022-08-01T15:24:52;2.97;;;2.30;;